createdAt,value
2018-12-17T00:00:43.660Z,31.50
2018-12-17T00:03:09.944Z,31.50
2018-12-17T00:05:41.683Z,31.50
2018-12-17T00:08:02.571Z,31.50
2018-12-17T00:10:30.400Z,31.50
2018-12-17T00:12:56.655Z,31.40
2018-12-17T00:15:24.352Z,31.40
2018-12-17T00:17:50.746Z,31.40
2018-12-17T00:20:16.967Z,31.40
2018-12-17T00:22:43.208Z,31.30
2018-12-17T00:25:09.388Z,31.40
2018-12-17T00:27:35.662Z,31.40
2018-12-17T00:30:01.890Z,31.60
2018-12-17T00:32:28.128Z,31.60
2018-12-17T00:34:54.327Z,31.60
2018-12-17T00:37:20.574Z,31.50
2018-12-17T00:39:46.767Z,31.50
2018-12-17T00:42:13.032Z,31.50
2018-12-17T00:44:41.140Z,31.40
2018-12-17T00:47:07.517Z,31.40
2018-12-17T00:49:33.755Z,31.50
2018-12-17T00:51:59.976Z,31.50
2018-12-17T00:54:26.199Z,31.50
2018-12-17T00:56:52.468Z,31.60
2018-12-17T00:59:18.907Z,31.50
2018-12-17T01:01:45.318Z,31.50
2018-12-17T01:04:13.216Z,31.50
2018-12-17T01:06:39.642Z,31.50
2018-12-17T01:09:06.055Z,31.40
2018-12-17T01:11:33.092Z,31.40
2018-12-17T01:14:00.787Z,31.50
2018-12-17T01:16:27.199Z,31.40
2018-12-17T01:18:53.484Z,31.40
2018-12-17T01:21:19.855Z,31.40
2018-12-17T01:23:46.119Z,31.50
2018-12-17T01:26:12.501Z,31.50
2018-12-17T01:28:38.724Z,31.40
2018-12-17T01:31:05.010Z,31.50
2018-12-17T01:33:31.405Z,31.50
2018-12-17T01:35:57.607Z,31.40
2018-12-17T01:38:23.839Z,31.40
2018-12-17T01:40:54.224Z,31.40
2018-12-17T01:43:20.665Z,31.40
2018-12-17T01:45:47.117Z,31.40
2018-12-17T01:48:13.493Z,31.40
2018-12-17T01:50:39.699Z,31.40
2018-12-17T01:53:06.371Z,31.40
2018-12-17T01:55:32.575Z,31.40
2018-12-17T01:57:58.801Z,31.40
2018-12-17T02:00:25.036Z,31.40
2018-12-17T02:02:51.246Z,31.40
2018-12-17T02:05:17.499Z,31.40
2018-12-17T02:07:43.723Z,31.40
2018-12-17T02:10:09.945Z,31.40
2018-12-17T02:12:36.175Z,31.40
2018-12-17T02:15:02.411Z,31.40
2018-12-17T02:17:29.447Z,31.40
2018-12-17T02:19:55.720Z,31.40
2018-12-17T02:22:21.899Z,31.40
2018-12-17T02:24:49.614Z,31.40
2018-12-17T02:27:15.999Z,31.40
2018-12-17T02:29:43.038Z,31.40
2018-12-17T02:32:09.277Z,31.40
2018-12-17T02:34:35.494Z,31.40
2018-12-17T02:37:01.743Z,31.40
2018-12-17T02:39:28.002Z,31.40
2018-12-17T02:41:54.179Z,31.40
2018-12-17T02:44:20.405Z,31.40
2018-12-17T02:46:46.654Z,31.40
2018-12-17T02:49:18.206Z,31.40
2018-12-17T02:51:44.423Z,31.40
2018-12-17T02:54:10.692Z,31.40
2018-12-17T02:56:36.888Z,31.40
2018-12-17T02:59:03.095Z,31.40
2018-12-17T03:01:29.350Z,31.40
2018-12-17T03:03:55.787Z,31.40
2018-12-17T03:06:22.194Z,31.40
2018-12-17T03:08:48.388Z,31.40
2018-12-17T03:11:14.661Z,31.40
2018-12-17T03:13:40.892Z,31.40
2018-12-17T03:16:07.928Z,31.40
2018-12-17T03:18:34.203Z,31.40
2018-12-17T03:21:00.610Z,31.50
2018-12-17T03:23:26.793Z,31.40
2018-12-17T03:25:53.062Z,31.40
2018-12-17T03:28:19.322Z,31.40
2018-12-17T03:30:45.700Z,31.40
2018-12-17T03:33:11.949Z,31.40
2018-12-17T03:35:38.164Z,31.40
2018-12-17T03:38:04.419Z,31.40
2018-12-17T03:40:30.612Z,31.40
2018-12-17T03:42:57.099Z,31.40
2018-12-17T03:45:23.495Z,31.30
2018-12-17T03:47:49.723Z,31.30
2018-12-17T03:50:17.596Z,31.40
2018-12-17T03:52:43.837Z,31.30
2018-12-17T03:55:10.027Z,31.30
2018-12-17T03:57:36.331Z,31.40
2018-12-17T04:00:02.705Z,31.40
2018-12-17T04:02:28.934Z,32.10
2018-12-17T04:04:56.005Z,31.50
2018-12-17T04:07:22.409Z,31.50
2018-12-17T04:09:48.588Z,31.50
2018-12-17T04:12:14.860Z,31.50
2018-12-17T04:14:41.084Z,31.50
2018-12-17T04:17:07.313Z,32.10
2018-12-17T04:19:36.410Z,31.50
2018-12-17T04:22:02.651Z,31.50
2018-12-17T04:24:28.852Z,31.50
2018-12-17T04:26:55.052Z,31.50
2018-12-17T04:29:21.352Z,31.50
2018-12-17T04:31:48.087Z,31.50
2018-12-17T04:34:15.235Z,31.50
2018-12-17T04:36:41.477Z,31.50
2018-12-17T04:39:07.685Z,31.60
2018-12-17T04:41:33.871Z,31.60
2018-12-17T04:44:00.160Z,31.50
2018-12-17T04:46:26.358Z,31.60
2018-12-17T04:48:52.587Z,31.60
2018-12-17T04:51:18.824Z,31.60
2018-12-17T04:53:45.044Z,31.60
2018-12-17T04:56:11.319Z,31.60
2018-12-17T04:58:37.723Z,31.70
2018-12-17T05:01:03.941Z,31.70
2018-12-17T05:03:30.158Z,31.70
2018-12-17T05:05:56.411Z,31.70
2018-12-17T05:08:23.427Z,31.70
2018-12-17T05:10:49.689Z,31.70
2018-12-17T05:13:17.321Z,31.70
2018-12-17T05:15:43.528Z,31.70
2018-12-17T05:18:09.748Z,31.70
2018-12-17T05:20:35.995Z,31.70
2018-12-17T05:23:02.436Z,31.70
2018-12-17T05:25:28.614Z,31.70
2018-12-17T05:27:55.579Z,31.80
2018-12-17T05:30:21.968Z,31.70
2018-12-17T05:32:48.409Z,31.70
2018-12-17T05:35:14.839Z,31.70
2018-12-17T05:37:41.056Z,31.80
2018-12-17T05:40:07.463Z,31.80
2018-12-17T05:42:33.953Z,31.80
2018-12-17T05:45:00.347Z,32.50
2018-12-17T05:47:26.589Z,31.90
2018-12-17T05:49:53.596Z,31.90
2018-12-17T05:52:19.844Z,31.90
2018-12-17T05:54:46.075Z,31.90
2018-12-17T05:57:13.938Z,31.80
2018-12-17T05:59:40.167Z,31.90
2018-12-17T06:02:07.887Z,32.00
2018-12-17T06:04:34.073Z,31.90
2018-12-17T06:07:00.339Z,31.90
2018-12-17T06:09:26.731Z,31.90
2018-12-17T06:11:52.995Z,32.00
2018-12-17T06:14:19.190Z,31.90
2018-12-17T06:16:46.899Z,32.00
2018-12-17T06:19:13.314Z,32.00
2018-12-17T06:21:39.712Z,32.00
2018-12-17T06:24:07.579Z,32.10
2018-12-17T06:26:33.768Z,32.10
2018-12-17T06:29:00.032Z,32.00
2018-12-17T06:31:26.228Z,32.10
2018-12-17T06:33:52.483Z,32.10
2018-12-17T06:36:19.556Z,32.20
2018-12-17T06:38:45.815Z,32.20
2018-12-17T06:41:12.003Z,32.10
2018-12-17T06:43:38.189Z,32.10
2018-12-17T06:46:04.434Z,32.10
2018-12-17T06:48:30.683Z,32.10
2018-12-17T06:50:58.531Z,32.10
2018-12-17T06:53:24.810Z,32.10
2018-12-17T06:55:51.203Z,32.20
2018-12-17T06:58:17.424Z,32.20
2018-12-17T07:00:43.699Z,32.20
2018-12-17T07:03:10.103Z,32.20
2018-12-17T07:05:37.120Z,32.30
2018-12-17T07:08:03.366Z,32.30
2018-12-17T07:10:29.580Z,32.30
2018-12-17T07:12:55.821Z,32.30
2018-12-17T07:15:22.036Z,32.30
2018-12-17T07:17:48.275Z,32.40
2018-12-17T07:20:14.507Z,32.40
2018-12-17T07:22:41.369Z,32.50
2018-12-17T07:25:08.390Z,32.50
2018-12-17T07:27:34.635Z,32.50
2018-12-17T07:30:01.737Z,32.50
2018-12-17T07:32:28.147Z,32.50
2018-12-17T07:34:54.326Z,32.60
2018-12-17T07:37:20.609Z,32.60
2018-12-17T07:39:47.059Z,32.60
2018-12-17T07:42:13.420Z,32.70
2018-12-17T07:44:39.658Z,32.80
2018-12-17T07:47:07.525Z,32.80
2018-12-17T07:49:34.068Z,32.70
2018-12-17T07:52:00.391Z,32.80
2018-12-17T07:54:28.079Z,32.90
2018-12-17T07:56:54.529Z,32.90
2018-12-17T07:59:20.899Z,32.90
2018-12-17T08:01:47.118Z,33.00
2018-12-17T08:04:13.375Z,33.00
2018-12-17T08:06:39.608Z,33.00
2018-12-17T08:09:05.825Z,33.10
2018-12-17T08:11:32.432Z,33.10
2018-12-17T08:13:58.611Z,33.40
2018-12-17T08:16:24.924Z,33.10
2018-12-17T08:18:51.161Z,33.30
2018-12-17T08:21:17.363Z,33.20
2018-12-17T08:23:43.619Z,33.30
2018-12-17T08:26:09.820Z,33.30
2018-12-17T08:28:36.046Z,33.30
2018-12-17T08:31:02.295Z,33.30
2018-12-17T08:33:28.529Z,33.30
2018-12-17T08:35:54.731Z,33.30
2018-12-17T08:38:20.947Z,33.30
2018-12-17T08:40:47.191Z,33.40
2018-12-17T08:43:13.403Z,33.40
2018-12-17T08:45:39.628Z,33.50
2018-12-17T08:48:05.926Z,33.50
2018-12-17T08:50:32.921Z,33.50
2018-12-17T08:52:59.152Z,33.50
2018-12-17T08:55:25.386Z,33.50
2018-12-17T08:57:51.625Z,33.50
2018-12-17T09:00:19.322Z,33.60
2018-12-17T09:02:45.712Z,33.60
2018-12-17T09:05:11.985Z,33.60
2018-12-17T09:07:38.379Z,33.70
2018-12-17T09:10:05.447Z,33.80
2018-12-17T09:12:31.672Z,33.80
2018-12-17T09:14:58.083Z,33.80
2018-12-17T09:17:24.314Z,33.80
2018-12-17T09:19:50.534Z,33.90
2018-12-17T09:22:16.823Z,34.00
2018-12-17T09:24:43.198Z,34.00
2018-12-17T09:27:09.428Z,34.00
2018-12-17T09:29:37.120Z,34.10
2018-12-17T09:32:03.319Z,34.00
2018-12-17T09:34:31.024Z,34.70
2018-12-17T09:36:57.400Z,34.70
2018-12-17T09:39:23.687Z,34.50
2018-12-17T09:41:50.072Z,34.40
2018-12-17T09:44:16.303Z,34.60
2018-12-17T09:46:42.476Z,34.80
2018-12-17T09:49:08.761Z,34.80
2018-12-17T09:51:34.983Z,35.30
2018-12-17T09:54:01.203Z,35.80
2018-12-17T09:56:27.434Z,35.50
2018-12-17T09:58:53.676Z,35.40
2018-12-17T10:01:19.879Z,35.90
2018-12-17T10:03:46.111Z,35.60
2018-12-17T10:06:12.354Z,35.90
2018-12-17T10:08:38.575Z,35.90
2018-12-17T10:11:04.806Z,36.00
2018-12-17T10:13:31.046Z,35.90
2018-12-17T10:15:57.254Z,36.00
2018-12-17T10:18:23.746Z,36.30
2018-12-17T10:20:50.142Z,36.40
2018-12-17T10:23:16.360Z,36.40
2018-12-17T10:25:42.601Z,36.20
2018-12-17T10:28:09.633Z,36.90
2018-12-17T10:30:35.887Z,36.90
2018-12-17T10:33:02.292Z,36.80
2018-12-17T10:35:28.541Z,37.10
2018-12-17T10:37:55.519Z,37.40
2018-12-17T10:40:21.781Z,37.40
2018-12-17T10:42:49.879Z,38.00
2018-12-17T10:45:16.075Z,37.50
2018-12-17T10:47:42.334Z,37.40
2018-12-17T10:50:08.547Z,37.60
2018-12-17T10:52:34.767Z,37.50
2018-12-17T10:55:01.013Z,37.30
2018-12-17T10:57:27.236Z,37.60
2018-12-17T10:59:54.990Z,37.40
2018-12-17T11:02:21.338Z,37.40
2018-12-17T11:04:49.190Z,37.80
2018-12-17T11:07:15.423Z,37.80
2018-12-17T11:09:41.690Z,37.90
2018-12-17T11:12:08.124Z,37.80
2018-12-17T11:14:34.566Z,38.10
2018-12-17T11:17:00.767Z,37.80
2018-12-17T11:19:26.964Z,37.80
2018-12-17T11:21:54.019Z,37.70
2018-12-17T11:24:20.298Z,38.00
2018-12-17T11:26:46.509Z,37.90
2018-12-17T11:29:12.689Z,38.10
2018-12-17T11:31:38.946Z,38.10
2018-12-17T11:34:05.544Z,38.10
2018-12-17T11:36:31.808Z,38.30
2018-12-17T11:38:58.030Z,38.40
2018-12-17T11:41:24.258Z,39.10
2018-12-17T11:43:50.534Z,39.00
2018-12-17T11:46:16.922Z,38.70
2018-12-17T11:48:43.151Z,38.80
2018-12-17T11:51:09.335Z,38.80
2018-12-17T11:53:35.526Z,39.00
2018-12-17T11:56:02.696Z,39.30
2018-12-17T11:58:29.091Z,38.90
2018-12-17T12:00:55.536Z,39.50
2018-12-17T12:03:22.547Z,39.10
2018-12-17T12:05:49.044Z,39.00
2018-12-17T12:08:15.427Z,39.10
2018-12-17T12:10:41.669Z,39.00
2018-12-17T12:13:07.882Z,39.00
2018-12-17T12:15:34.110Z,39.10
2018-12-17T12:18:00.343Z,39.10
2018-12-17T12:20:26.534Z,39.30
2018-12-17T12:22:52.798Z,39.00
2018-12-17T12:25:19.039Z,39.30
2018-12-17T12:27:46.743Z,39.60
2018-12-17T12:30:13.125Z,39.50
2018-12-17T12:32:40.094Z,39.30
2018-12-17T12:35:07.211Z,39.40
2018-12-17T12:37:33.443Z,39.30
2018-12-17T12:39:59.720Z,39.60
2018-12-17T12:42:26.110Z,39.50
2018-12-17T12:44:52.324Z,39.40
2018-12-17T12:47:18.554Z,39.40
2018-12-17T12:49:44.778Z,39.30
2018-12-17T12:52:10.963Z,39.30
2018-12-17T12:54:37.235Z,39.30
2018-12-17T12:57:03.484Z,39.40
2018-12-17T12:59:29.722Z,39.40
2018-12-17T13:01:56.128Z,39.30
2018-12-17T13:04:23.203Z,39.90
2018-12-17T13:06:49.417Z,39.30
2018-12-17T13:09:15.637Z,39.30
2018-12-17T13:11:41.852Z,39.40
2018-12-17T13:14:08.348Z,39.50
2018-12-17T13:16:34.529Z,39.60
2018-12-17T13:19:00.733Z,39.70
2018-12-17T13:21:26.973Z,39.90
2018-12-17T13:23:53.520Z,40.10
2018-12-17T13:26:19.835Z,40.10
2018-12-17T13:28:46.063Z,40.00
2018-12-17T13:31:14.708Z,40.20
2018-12-17T13:33:39.260Z,40.00
2018-12-17T13:36:06.403Z,40.00
2018-12-17T13:38:32.624Z,40.00
2018-12-17T13:40:58.839Z,40.00
2018-12-17T13:43:25.095Z,40.20
2018-12-17T13:45:51.302Z,40.80
2018-12-17T13:48:17.589Z,40.60
2018-12-17T13:50:44.231Z,40.60
2018-12-17T13:53:10.614Z,40.70
2018-12-17T13:55:37.039Z,41.10
2018-12-17T13:58:03.237Z,40.60
2018-12-17T14:00:29.482Z,40.50
2018-12-17T14:02:55.785Z,40.50
2018-12-17T14:05:22.409Z,40.70
2018-12-17T14:07:48.625Z,40.60
2018-12-17T14:10:15.031Z,40.80
2018-12-17T14:12:41.279Z,40.80
2018-12-17T14:15:07.689Z,40.60
2018-12-17T14:17:33.903Z,41.10
2018-12-17T14:20:00.155Z,40.80
2018-12-17T14:22:26.374Z,40.60
2018-12-17T14:24:52.577Z,40.50
2018-12-17T14:27:18.807Z,40.50
2018-12-17T14:29:44.998Z,40.40
2018-12-17T14:32:11.273Z,40.30
2018-12-17T14:34:37.763Z,40.30
2018-12-17T14:37:04.151Z,40.30
2018-12-17T14:39:30.418Z,40.30
2018-12-17T14:41:56.839Z,40.30
2018-12-17T14:44:23.258Z,40.30
2018-12-17T14:46:49.468Z,40.40
2018-12-17T14:49:15.950Z,40.50
2018-12-17T14:51:42.333Z,40.60
2018-12-17T14:54:08.551Z,40.50
2018-12-17T14:56:36.448Z,40.50
2018-12-17T14:59:02.871Z,40.50
2018-12-17T15:01:35.633Z,40.60
2018-12-17T15:03:55.528Z,40.70
2018-12-17T15:06:21.781Z,40.60
2018-12-17T15:08:48.199Z,40.60
2018-12-17T15:11:16.044Z,40.90
2018-12-17T15:13:42.283Z,40.80
2018-12-17T15:16:08.526Z,40.80
2018-12-17T15:18:34.938Z,41.00
2018-12-17T15:21:01.167Z,41.20
2018-12-17T15:23:27.447Z,41.50
2018-12-17T15:25:53.835Z,41.40
2018-12-17T15:28:21.714Z,41.20
2018-12-17T15:30:47.977Z,41.20
2018-12-17T15:33:14.384Z,41.20
2018-12-17T15:35:40.644Z,41.00
2018-12-17T15:38:07.635Z,41.00
2018-12-17T15:40:33.843Z,41.00
2018-12-17T15:43:00.078Z,41.10
2018-12-17T15:45:26.314Z,41.00
2018-12-17T15:47:52.544Z,41.10
2018-12-17T15:50:18.780Z,41.20
2018-12-17T15:52:45.022Z,41.10
2018-12-17T15:55:11.451Z,41.20
2018-12-17T15:57:37.879Z,41.30
2018-12-17T16:00:05.782Z,41.30
2018-12-17T16:02:32.165Z,41.30
2018-12-17T16:04:58.411Z,41.30
2018-12-17T16:07:25.453Z,41.20
2018-12-17T16:09:52.498Z,41.30
2018-12-17T16:12:18.709Z,41.30
2018-12-17T16:14:44.966Z,42.00
2018-12-17T16:17:11.188Z,41.80
2018-12-17T16:19:37.653Z,41.50
2018-12-17T16:22:04.066Z,41.70
2018-12-17T16:24:30.297Z,41.90
2018-12-17T16:26:56.715Z,42.00
2018-12-17T16:29:23.166Z,42.00
2018-12-17T16:31:49.367Z,41.80
2018-12-17T16:34:15.595Z,42.00
2018-12-17T16:36:41.862Z,42.00
2018-12-17T16:39:08.266Z,42.20
2018-12-17T16:41:34.526Z,42.10
2018-12-17T16:44:00.909Z,42.40
2018-12-17T16:46:27.102Z,42.10
2018-12-17T16:48:53.372Z,42.10
2018-12-17T16:51:19.603Z,42.20
2018-12-17T16:53:45.835Z,42.10
2018-12-17T16:56:12.623Z,42.30
2018-12-17T16:58:38.807Z,42.20
2018-12-17T17:01:05.135Z,42.20
2018-12-17T17:03:31.395Z,42.20
2018-12-17T17:05:57.779Z,42.10
2018-12-17T17:08:23.998Z,42.20
2018-12-17T17:10:51.719Z,42.10
2018-12-17T17:13:18.104Z,42.00
2018-12-17T17:15:44.333Z,42.20
2018-12-17T17:18:12.182Z,42.00
2018-12-17T17:20:38.639Z,42.00
2018-12-17T17:23:04.874Z,42.40
2018-12-17T17:25:31.107Z,42.20
2018-12-17T17:27:57.322Z,42.20
2018-12-17T17:30:23.536Z,42.10
2018-12-17T17:32:49.822Z,42.00
2018-12-17T17:35:16.047Z,42.00
2018-12-17T17:37:42.417Z,42.00
2018-12-17T17:40:08.650Z,42.20
2018-12-17T17:42:34.895Z,42.20
2018-12-17T17:45:01.141Z,42.20
2018-12-17T17:47:27.374Z,42.30
2018-12-17T17:49:53.779Z,42.20
2018-12-17T17:52:20.016Z,42.10
2018-12-17T17:54:46.281Z,42.10
2018-12-17T17:57:12.702Z,42.10
2018-12-17T17:59:43.244Z,42.10
2018-12-17T18:02:09.651Z,42.00
2018-12-17T18:04:35.906Z,42.00
2018-12-17T18:07:02.283Z,42.20
2018-12-17T18:09:28.516Z,42.10
2018-12-17T18:11:54.735Z,42.20
2018-12-17T18:14:20.991Z,42.20
2018-12-17T18:16:47.413Z,42.30
2018-12-17T18:19:13.658Z,42.40
2018-12-17T18:21:39.862Z,42.20
2018-12-17T18:24:06.099Z,42.30
2018-12-17T18:26:33.057Z,42.20
2018-12-17T18:28:59.374Z,42.40
2018-12-17T18:31:25.620Z,42.40
2018-12-17T18:33:51.823Z,42.30
2018-12-17T18:36:18.057Z,42.20
2018-12-17T18:38:45.916Z,42.20
2018-12-17T18:41:12.137Z,42.10
2018-12-17T18:43:38.356Z,42.20
2018-12-17T18:46:04.584Z,42.20
2018-12-17T18:48:30.842Z,42.20
2018-12-17T18:50:57.067Z,42.20
2018-12-17T18:53:23.247Z,42.30
2018-12-17T18:55:49.521Z,42.40
2018-12-17T18:58:15.724Z,42.30
2018-12-17T19:00:41.971Z,42.40
2018-12-17T19:03:08.410Z,42.30
2018-12-17T19:05:36.743Z,42.40
2018-12-17T19:08:03.125Z,42.40
2018-12-17T19:10:29.338Z,42.30
2018-12-17T19:12:55.821Z,42.50
2018-12-17T19:15:23.027Z,42.40
2018-12-17T19:17:50.725Z,42.40
2018-12-17T19:20:16.929Z,42.30
2018-12-17T19:22:44.821Z,42.30
2018-12-17T19:25:11.220Z,42.40
2018-12-17T19:27:37.448Z,42.50
2018-12-17T19:30:03.691Z,42.30
2018-12-17T19:32:29.917Z,42.40
2018-12-17T19:34:56.179Z,42.40
2018-12-17T19:37:22.607Z,42.40
2018-12-17T19:39:49.008Z,42.30
2018-12-17T19:42:16.498Z,42.30
2018-12-17T19:44:42.937Z,42.30
2018-12-17T19:47:09.142Z,42.30
2018-12-17T19:49:35.546Z,42.30
2018-12-17T19:52:02.596Z,42.00
2018-12-17T19:54:29.011Z,42.50
2018-12-17T19:56:55.195Z,43.20
2018-12-17T19:59:21.485Z,42.60
2018-12-17T20:01:49.167Z,42.70
2018-12-17T20:04:15.591Z,42.70
2018-12-17T20:06:41.783Z,42.60
2018-12-17T20:09:07.972Z,42.70
2018-12-17T20:11:35.668Z,42.80
2018-12-17T20:14:02.992Z,42.80
2018-12-17T20:16:29.176Z,42.70
2018-12-17T20:18:55.398Z,42.70
2018-12-17T20:21:21.630Z,42.70
2018-12-17T20:23:49.554Z,42.70
2018-12-17T20:26:15.732Z,42.70
2018-12-17T20:28:43.326Z,42.70
2018-12-17T20:31:10.416Z,42.60
2018-12-17T20:33:36.677Z,42.60
2018-12-17T20:36:03.449Z,42.70
2018-12-17T20:38:29.711Z,42.90
2018-12-17T20:40:56.003Z,42.80
2018-12-17T20:43:22.464Z,42.80
2018-12-17T20:45:48.878Z,42.70
2018-12-17T20:48:15.266Z,42.80
2018-12-17T20:50:41.457Z,42.80
2018-12-17T20:53:07.707Z,42.70
2018-12-17T20:55:35.207Z,42.80
2018-12-17T20:58:01.856Z,42.80
2018-12-17T21:00:28.050Z,42.80
2018-12-17T21:03:00.071Z,43.00
2018-12-17T21:05:20.746Z,42.80
2018-12-17T21:07:47.148Z,43.20
2018-12-17T21:10:14.375Z,43.20
2018-12-17T21:12:40.622Z,43.10
2018-12-17T21:15:07.643Z,43.20
2018-12-17T21:17:33.887Z,43.10
2018-12-17T21:20:00.159Z,43.00
2018-12-17T21:22:26.581Z,42.90
2018-12-17T21:24:53.538Z,43.00
2018-12-17T21:27:19.823Z,43.00
2018-12-17T21:29:46.062Z,43.10
2018-12-17T21:32:14.986Z,43.00
2018-12-17T21:34:41.400Z,42.90
2018-12-17T21:37:07.587Z,42.90
2018-12-17T21:39:33.876Z,42.80
2018-12-17T21:42:00.104Z,43.00
2018-12-17T21:44:26.555Z,43.10
2018-12-17T21:46:52.995Z,43.00
2018-12-17T21:49:19.371Z,43.20
2018-12-17T21:51:45.636Z,43.00
2018-12-17T21:54:12.003Z,43.00
2018-12-17T21:56:38.236Z,43.00
2018-12-17T21:59:04.525Z,42.90
2018-12-17T22:01:30.900Z,43.00
2018-12-17T22:03:58.035Z,42.90
2018-12-17T22:06:24.398Z,43.00
2018-12-17T22:08:50.621Z,42.90
2018-12-17T22:11:16.905Z,43.00
2018-12-17T22:13:43.275Z,43.00
2018-12-17T22:16:09.527Z,43.00
2018-12-17T22:18:35.949Z,42.90
2018-12-17T22:21:02.201Z,42.90
2018-12-17T22:23:28.448Z,43.00
2018-12-17T22:25:54.855Z,43.00
2018-12-17T22:28:21.246Z,43.00
2018-12-17T22:30:47.513Z,43.00
2018-12-17T22:33:19.659Z,43.10
2018-12-17T22:35:40.173Z,43.00
2018-12-17T22:38:07.397Z,43.00
2018-12-17T22:40:33.579Z,43.00
2018-12-17T22:42:59.872Z,42.90
2018-12-17T22:45:26.091Z,43.00
2018-12-17T22:47:52.320Z,43.00
2018-12-17T22:50:20.036Z,42.90
2018-12-17T22:52:46.379Z,42.90
2018-12-17T22:55:12.632Z,43.00
2018-12-17T22:57:38.867Z,43.00
2018-12-17T23:00:06.300Z,43.00
2018-12-17T23:02:32.553Z,43.00
2018-12-17T23:04:58.806Z,43.10
2018-12-17T23:07:25.224Z,43.10
2018-12-17T23:09:51.460Z,43.10
2018-12-17T23:12:18.539Z,43.20
2018-12-17T23:14:44.914Z,43.20
2018-12-17T23:17:11.144Z,43.10
2018-12-17T23:19:37.375Z,43.20
2018-12-17T23:22:03.641Z,43.10
2018-12-17T23:24:29.832Z,43.00
2018-12-17T23:26:56.055Z,43.20
2018-12-17T23:29:22.278Z,43.30
2018-12-17T23:31:48.517Z,43.30
2018-12-17T23:34:14.786Z,43.30
2018-12-17T23:36:40.974Z,43.30
2018-12-17T23:39:07.211Z,43.30
2018-12-17T23:41:33.418Z,43.20
2018-12-17T23:43:59.643Z,43.20
2018-12-17T23:46:26.686Z,43.20
2018-12-17T23:48:52.980Z,43.20
2018-12-17T23:51:19.351Z,43.30
2018-12-17T23:53:45.570Z,43.20
2018-12-17T23:56:12.852Z,43.20
2018-12-17T23:58:38.072Z,43.20
